< < Back
Terminal Aerodrome Forecast


Current Version              Previous Versions:   1  2  3  4  5  6  7  8  9  

Terminal Aerodrome Forecast

808
FTUS42 KFFC 010535
TAFFTY
TAF
KFTY 010535Z 0106/0206 10006KT P6SM BKN025
     FM010800 09006KT 6SM -RA BKN008
     FM011000 08006KT 2SM -RADZ OVC004
     FM011500 08006KT 4SM -RADZ OVC007
     FM012100 08005KT 6SM BR BKN012
     FM020300 00000KT 2SM -DZ OVC008=



Latest METAR

315
SAUS70 KWBC 011500 RRN
MTRFTY
METAR KFTY 011453Z 00000KT 3SM BR OVC006 03/02 A3050 RMK AO2 RAE41
SLP331 P0002 60006 T00330022 53002


USA.gov is the U.S. government's official web portal to all federal, state and local government web resources and services.